createdAt,value
2017-06-15T00:01:11.776Z,14.4
2017-06-15T00:01:57.176Z,14.42
2017-06-15T00:02:57.207Z,14.39
2017-06-15T00:03:57.226Z,14.35
2017-06-15T00:07:11.914Z,14.33
2017-06-15T00:07:57.323Z,14.28
2017-06-15T00:09:11.961Z,14.32
2017-06-15T00:10:11.988Z,14.32
2017-06-15T00:10:57.393Z,14.18
2017-06-15T00:11:57.417Z,14.17
2017-06-15T00:12:57.440Z,14.25
2017-06-15T00:13:57.465Z,14.14
2017-06-15T00:14:57.185Z,14.22
2017-06-15T00:15:57.209Z,14.2
2017-06-15T00:16:57.234Z,14.18
2017-06-15T00:17:57.565Z,14.06
2017-06-15T00:19:57.609Z,14.03
2017-06-15T00:21:12.253Z,13.95
2017-06-15T00:21:57.658Z,14
2017-06-15T00:22:57.683Z,13.99
2017-06-15T00:23:57.705Z,13.99
2017-06-15T00:25:12.349Z,13.97
2017-06-15T00:25:57.753Z,13.89
2017-06-15T00:26:57.777Z,13.92
2017-06-15T00:27:57.802Z,13.89
2017-06-15T00:28:57.825Z,13.79
2017-06-15T00:29:57.853Z,13.85
2017-06-15T00:30:57.871Z,13.85
2017-06-15T00:31:57.897Z,13.87
2017-06-15T00:32:57.920Z,13.95
2017-06-15T00:33:57.945Z,13.85
2017-06-15T00:34:57.967Z,13.88
2017-06-15T00:35:57.696Z,13.97
2017-06-15T00:36:58.028Z,13.95
2017-06-15T00:37:58.043Z,13.89
2017-06-15T00:38:58.064Z,13.89
2017-06-15T00:39:58.089Z,13.77
2017-06-15T00:40:57.809Z,13.77
2017-06-15T00:41:58.140Z,13.77
2017-06-15T00:42:58.159Z,13.71
2017-06-15T00:43:58.184Z,13.64
2017-06-15T00:44:58.206Z,13.71
2017-06-15T00:45:58.253Z,13.63
2017-06-15T00:46:58.259Z,13.67
2017-06-15T00:47:58.286Z,13.64
2017-06-15T00:48:58.306Z,13.66
2017-06-15T00:50:58.350Z,13.7
2017-06-15T00:51:58.376Z,13.62
2017-06-15T00:53:13.015Z,13.6
2017-06-15T00:53:58.427Z,13.54
2017-06-15T00:54:58.444Z,13.59
2017-06-15T00:55:58.518Z,13.57
2017-06-15T00:57:13.109Z,13.66
2017-06-15T00:57:58.212Z,13.64
2017-06-15T00:58:58.541Z,13.66
2017-06-15T00:59:58.564Z,13.79
2017-06-15T01:00:58.589Z,13.7
2017-06-15T01:01:58.615Z,13.69
2017-06-15T01:03:58.658Z,13.59
2017-06-15T01:04:58.690Z,13.55
2017-06-15T01:07:58.753Z,13.52
2017-06-15T01:08:58.781Z,13.55
2017-06-15T01:10:13.418Z,13.46
2017-06-15T01:10:58.825Z,13.36
2017-06-15T01:11:58.846Z,13.45
2017-06-15T01:13:13.487Z,13.49
2017-06-15T01:13:58.894Z,13.48
2017-06-15T01:14:58.918Z,13.45
2017-06-15T01:15:58.946Z,13.45
2017-06-15T01:16:58.967Z,13.51
2017-06-15T01:17:59.040Z,13.52
2017-06-15T01:18:59.014Z,13.52
2017-06-15T01:19:59.036Z,13.59
2017-06-15T01:21:59.083Z,13.66
2017-06-15T01:22:59.108Z,13.67
2017-06-15T01:24:13.751Z,13.63
2017-06-15T01:25:13.773Z,13.57
2017-06-15T01:25:59.479Z,13.63
2017-06-15T01:26:59.205Z,13.71
2017-06-15T01:27:59.226Z,13.6
2017-06-15T01:29:13.865Z,13.6
2017-06-15T01:29:59.275Z,13.54
2017-06-15T01:30:59.298Z,13.52
2017-06-15T01:31:59.320Z,13.63
2017-06-15T01:32:59.346Z,13.6
2017-06-15T01:33:59.369Z,13.64
2017-06-15T01:34:59.392Z,13.63
2017-06-15T01:35:59.415Z,13.51
2017-06-15T01:36:59.437Z,13.51
2017-06-15T01:37:59.461Z,13.46
2017-06-15T01:38:59.486Z,13.44
2017-06-15T01:39:59.510Z,13.38
2017-06-15T01:40:59.539Z,13.44
2017-06-15T01:42:14.176Z,13.38
2017-06-15T01:43:59.602Z,13.46
2017-06-15T01:45:14.245Z,13.45
2017-06-15T01:45:59.652Z,13.46
2017-06-15T01:46:59.673Z,13.36
2017-06-15T01:47:59.701Z,13.29
2017-06-15T01:48:59.719Z,13.29
2017-06-15T01:49:59.795Z,13.28
2017-06-15T01:50:59.766Z,13.36
2017-06-15T01:51:59.789Z,13.29
2017-06-15T01:52:59.814Z,13.29
2017-06-15T01:53:59.534Z,13.38
2017-06-15T01:54:59.867Z,13.33
2017-06-15T01:56:59.948Z,13.28
2017-06-15T01:58:14.549Z,13.32
2017-06-15T01:58:59.957Z,13.52
2017-06-15T02:00:14.597Z,13.44
2017-06-15T02:01:00.002Z,13.42
2017-06-15T02:02:00.026Z,13.29
2017-06-15T02:03:00.052Z,13.33
2017-06-15T02:04:00.076Z,13.19
2017-06-15T02:05:00.098Z,13.17
2017-06-15T02:06:00.122Z,13.14
2017-06-15T02:07:00.145Z,13.04
2017-06-15T02:12:00.264Z,13.05
2017-06-15T02:13:00.287Z,13.07
2017-06-15T02:14:00.003Z,13.04
2017-06-15T02:15:00.334Z,13.04
2017-06-15T02:16:00.358Z,13.2
2017-06-15T02:17:00.378Z,13.22
2017-06-15T02:18:00.402Z,13.3
2017-06-15T02:19:00.424Z,13.26
2017-06-15T02:20:00.447Z,13.39
2017-06-15T02:21:00.472Z,13.33
2017-06-15T02:22:00.498Z,13.33
2017-06-15T02:23:00.520Z,13.19
2017-06-15T02:24:00.237Z,13.25
2017-06-15T02:25:00.568Z,13.15
2017-06-15T02:26:00.592Z,13.01
2017-06-15T02:27:15.232Z,13
2017-06-15T02:28:00.635Z,12.95
2017-06-15T02:29:15.277Z,12.93
2017-06-15T02:30:00.683Z,12.85
2017-06-15T02:31:00.707Z,12.83
2017-06-15T02:32:15.348Z,12.87
2017-06-15T02:33:00.754Z,12.86
2017-06-15T02:34:00.776Z,12.75
2017-06-15T02:35:00.802Z,12.77
2017-06-15T02:36:00.822Z,12.92
2017-06-15T02:37:00.845Z,12.96
2017-06-15T02:38:00.868Z,13.08
2017-06-15T02:39:00.893Z,13.03
2017-06-15T02:40:00.918Z,13.03
2017-06-15T02:41:00.636Z,12.97
2017-06-15T02:42:00.961Z,13.03
2017-06-15T02:44:15.626Z,13.01
2017-06-15T02:45:15.648Z,13.05
2017-06-15T02:46:15.671Z,13.01
2017-06-15T02:47:01.079Z,13.03
2017-06-15T02:48:15.720Z,12.96
2017-06-15T02:49:01.168Z,12.92
2017-06-15T02:50:01.149Z,12.96
2017-06-15T02:51:01.172Z,12.96
2017-06-15T02:52:01.194Z,12.89
2017-06-15T02:53:01.219Z,12.87
2017-06-15T02:54:01.242Z,12.9
2017-06-15T02:55:01.315Z,12.93
2017-06-15T02:56:01.037Z,12.92
2017-06-15T02:57:01.310Z,12.89
2017-06-15T02:58:01.333Z,12.9
2017-06-15T02:59:01.358Z,12.92
2017-06-15T03:01:16.021Z,12.87
2017-06-15T03:02:01.123Z,12.9
2017-06-15T03:03:01.451Z,12.92
2017-06-15T03:04:16.090Z,12.97
2017-06-15T03:05:01.497Z,12.96
2017-06-15T03:06:01.522Z,12.95
2017-06-15T03:07:01.544Z,12.9
2017-06-15T03:08:01.566Z,12.93
2017-06-15T03:09:01.590Z,12.93
2017-06-15T03:10:01.310Z,12.97
2017-06-15T03:11:01.636Z,12.95
2017-06-15T03:12:01.661Z,13.07
2017-06-15T03:13:01.683Z,13.04
2017-06-15T03:14:01.705Z,13.05
2017-06-15T03:15:01.730Z,13.01
2017-06-15T03:16:01.752Z,13.03
2017-06-15T03:17:16.393Z,13.1
2017-06-15T03:18:01.800Z,13.03
2017-06-15T03:19:16.439Z,13.14
2017-06-15T03:20:16.159Z,13.17
2017-06-15T03:21:01.871Z,13.17
2017-06-15T03:22:01.894Z,13.15
2017-06-15T03:23:01.921Z,13.2
2017-06-15T03:24:01.949Z,13.22
2017-06-15T03:25:01.964Z,13.23
2017-06-15T03:26:01.990Z,13.32
2017-06-15T03:27:02.008Z,13.33
2017-06-15T03:28:02.037Z,13.33
2017-06-15T03:30:02.105Z,13.32
2017-06-15T03:32:16.744Z,13.33
2017-06-15T03:33:02.153Z,13.29
2017-06-15T03:34:02.172Z,13.28
2017-06-15T03:35:16.816Z,13.19
2017-06-15T03:36:02.223Z,13.22
2017-06-15T03:37:02.247Z,13.22
2017-06-15T03:38:02.271Z,13.28
2017-06-15T03:40:02.316Z,13.28
2017-06-15T03:41:02.338Z,13.26
2017-06-15T03:42:02.366Z,13.42
2017-06-15T03:43:02.385Z,13.49
2017-06-15T03:45:02.432Z,13.6
2017-06-15T03:46:02.455Z,13.62
2017-06-15T03:47:02.479Z,13.6
2017-06-15T03:48:02.500Z,13.62
2017-06-15T03:49:02.527Z,13.64
2017-06-15T03:50:02.572Z,13.67
2017-06-15T03:51:02.569Z,13.77
2017-06-15T03:52:02.600Z,13.95
2017-06-15T03:54:02.642Z,13.97
2017-06-15T03:56:02.739Z,14.12
2017-06-15T03:57:02.722Z,14.21
2017-06-15T03:58:02.740Z,14.32
2017-06-15T03:59:02.756Z,14.42
2017-06-15T04:00:02.785Z,14.61
2017-06-15T04:01:02.804Z,14.64
2017-06-15T04:02:02.829Z,14.89
2017-06-15T04:03:02.854Z,14.99
2017-06-15T04:04:02.877Z,15.1
2017-06-15T04:05:02.898Z,15.2
2017-06-15T04:06:02.923Z,15.29
2017-06-15T04:07:17.565Z,15.39
2017-06-15T04:08:02.971Z,15.49
2017-06-15T04:09:02.993Z,15.67
2017-06-15T04:10:03.069Z,16.14
2017-06-15T04:11:03.041Z,16.93
2017-06-15T04:12:03.068Z,17.55
2017-06-15T04:13:03.089Z,17.84
2017-06-15T04:14:03.157Z,17.79
2017-06-15T04:15:03.138Z,17.66
2017-06-15T04:17:17.808Z,17.26
2017-06-15T04:18:03.213Z,17.25
2017-06-15T04:19:03.235Z,17.14
2017-06-15T04:20:03.263Z,17
2017-06-15T04:21:17.902Z,16.93
2017-06-15T04:22:03.312Z,16.85
2017-06-15T04:23:17.650Z,16.85
2017-06-15T04:24:03.359Z,16.79
2017-06-15T04:25:03.382Z,16.68
2017-06-15T04:26:03.406Z,16.63
2017-06-15T04:27:03.430Z,16.56
2017-06-15T04:28:03.454Z,16.58
2017-06-15T04:29:03.480Z,16.57
2017-06-15T04:30:03.503Z,16.56
2017-06-15T04:31:03.581Z,16.58
2017-06-15T04:32:18.175Z,16.6
2017-06-15T04:35:03.628Z,16.82
2017-06-15T04:36:03.700Z,16.82
2017-06-15T04:37:03.677Z,16.94
2017-06-15T04:38:03.701Z,16.94
2017-06-15T04:39:18.341Z,17.01
2017-06-15T04:40:03.752Z,17.08
2017-06-15T04:41:03.469Z,17.12
2017-06-15T04:42:03.797Z,17.14
2017-06-15T04:43:03.822Z,17.06
2017-06-15T04:44:03.848Z,17.08
2017-06-15T04:45:03.873Z,17.14
2017-06-15T04:47:03.920Z,17.25
2017-06-15T04:48:03.943Z,17.23
2017-06-15T04:49:03.970Z,17.25
2017-06-15T04:50:18.663Z,17.31
2017-06-15T04:51:04.017Z,17.4
2017-06-15T04:52:18.660Z,17.54
2017-06-15T04:53:04.067Z,17.71
2017-06-15T04:54:18.710Z,18.12
2017-06-15T04:55:18.735Z,18.55
2017-06-15T04:56:04.143Z,18.72
2017-06-15T04:57:04.167Z,19.36
2017-06-15T04:58:04.190Z,20.47
2017-06-15T04:59:04.224Z,21.46
2017-06-15T05:00:04.242Z,22.25
2017-06-15T05:01:04.301Z,23.61
2017-06-15T05:02:04.294Z,24.45
2017-06-15T05:03:04.323Z,25.38
2017-06-15T05:04:04.651Z,25.91
2017-06-15T05:05:04.375Z,26.25
2017-06-15T05:06:04.455Z,26.29
2017-06-15T05:07:04.436Z,26.76
2017-06-15T05:08:19.080Z,27.28
2017-06-15T05:09:04.492Z,27.67
2017-06-15T05:10:19.140Z,28.03
2017-06-15T05:11:04.551Z,28.24
2017-06-15T05:12:04.582Z,28.18
2017-06-15T05:13:04.611Z,28.54
2017-06-15T05:14:04.642Z,28.74
2017-06-15T05:15:04.675Z,28.59
2017-06-15T05:16:04.704Z,28.9
2017-06-15T05:17:04.738Z,29.55
2017-06-15T05:18:04.768Z,30.2
2017-06-15T05:19:04.798Z,30.62
2017-06-15T05:20:04.531Z,30.91
2017-06-15T05:22:04.901Z,31.99
2017-06-15T05:23:04.631Z,32.22
2017-06-15T05:24:04.659Z,32.25
2017-06-15T05:25:04.999Z,32.57
2017-06-15T05:26:05.034Z,32.78
2017-06-15T05:27:05.074Z,32.72
2017-06-15T05:28:05.102Z,32.88
2017-06-15T05:29:05.134Z,32.92
2017-06-15T05:30:05.170Z,32.99
2017-06-15T05:31:05.206Z,32.78
2017-06-15T05:32:05.239Z,33.18
2017-06-15T05:33:05.273Z,33.15
2017-06-15T05:34:05.309Z,33.03
2017-06-15T05:35:05.041Z,33.72
2017-06-15T05:36:05.075Z,34.06
2017-06-15T05:37:05.416Z,33.91
2017-06-15T05:39:20.105Z,33.95
2017-06-15T05:40:05.526Z,34.19
2017-06-15T05:41:05.555Z,34.17
2017-06-15T05:42:20.212Z,33.49
2017-06-15T05:43:05.627Z,33.57
2017-06-15T05:44:05.663Z,33.32
2017-06-15T05:45:05.703Z,32.89
2017-06-15T05:46:05.732Z,33.09
2017-06-15T05:47:05.771Z,34.08
2017-06-15T05:48:05.810Z,34.49
2017-06-15T05:49:05.843Z,34.87
2017-06-15T05:50:05.577Z,34.61
2017-06-15T05:51:05.917Z,34.06
2017-06-15T05:53:05.992Z,34.52
2017-06-15T05:54:20.648Z,34.84
2017-06-15T05:55:20.684Z,34.62
2017-06-15T05:56:20.721Z,34.64
2017-06-15T05:57:06.139Z,35.15
2017-06-15T05:58:20.796Z,35.38
2017-06-15T05:59:06.212Z,35.25
2017-06-15T06:00:07.503Z,34.96
2017-06-15T06:01:06.288Z,35.18
2017-06-15T06:02:06.324Z,35.36
2017-06-15T06:03:06.358Z,35.62
2017-06-15T06:04:06.395Z,35.7
2017-06-15T06:05:06.463Z,35.48
2017-06-15T06:06:06.470Z,34.88
2017-06-15T06:07:06.204Z,34.46
2017-06-15T06:08:06.550Z,34.84
2017-06-15T06:09:06.583Z,35.47
2017-06-15T06:10:06.647Z,35.81
2017-06-15T06:11:06.657Z,35.68
2017-06-15T06:12:06.391Z,35.72
2017-06-15T06:13:06.736Z,35.96
2017-06-15T06:14:21.390Z,36.71
2017-06-15T06:15:06.812Z,36.5
2017-06-15T06:16:06.849Z,36.08
2017-06-15T06:17:06.884Z,35.44
2017-06-15T06:18:06.920Z,35.8
2017-06-15T06:19:06.959Z,35.78
2017-06-15T06:20:07.006Z,35.65
2017-06-15T06:22:07.074Z,35.66
2017-06-15T06:23:07.116Z,35.45
2017-06-15T06:24:07.152Z,35.59
2017-06-15T06:26:21.846Z,35.99
2017-06-15T06:27:21.882Z,35.45
2017-06-15T06:28:07.304Z,35.68
2017-06-15T06:29:07.336Z,35.8
2017-06-15T06:30:21.999Z,36.05
2017-06-15T06:31:07.414Z,36.13
2017-06-15T06:32:07.450Z,35.77
2017-06-15T06:33:07.487Z,35.38
2017-06-15T06:34:07.533Z,35.62
2017-06-15T06:35:07.565Z,35.58
2017-06-15T06:36:07.613Z,35.85
2017-06-15T06:37:07.338Z,35.77
2017-06-15T06:38:07.678Z,35.52
2017-06-15T06:39:07.717Z,35.9
2017-06-15T06:40:07.753Z,36.09
2017-06-15T06:41:07.796Z,35.97
2017-06-15T06:42:22.453Z,35.92
2017-06-15T06:43:07.870Z,36.22
2017-06-15T06:44:08.213Z,36.22
2017-06-15T06:45:22.567Z,36.39
2017-06-15T06:46:07.988Z,36.65
2017-06-15T06:47:08.023Z,37.03
2017-06-15T06:48:08.062Z,37.18
2017-06-15T06:49:08.149Z,37.2
2017-06-15T06:50:07.836Z,37.09
2017-06-15T06:51:08.177Z,36.95
2017-06-15T06:52:08.219Z,36.95
2017-06-15T06:53:08.268Z,36.94
2017-06-15T06:54:08.299Z,37.2
2017-06-15T06:55:08.331Z,37.13
2017-06-15T06:56:22.993Z,37.17
2017-06-15T06:57:08.409Z,37.55
2017-06-15T06:58:08.449Z,37.75
2017-06-15T06:59:23.106Z,37.6
2017-06-15T07:00:08.778Z,37.21
2017-06-15T07:01:08.564Z,37.56
2017-06-15T07:02:08.609Z,36.72
2017-06-15T07:03:08.640Z,36.41
2017-06-15T07:04:08.681Z,36.56
2017-06-15T07:05:08.717Z,36.87
2017-06-15T07:06:08.757Z,36.91
2017-06-15T07:07:08.801Z,37.07
2017-06-15T07:08:08.834Z,36.62
2017-06-15T07:09:08.872Z,35.81
2017-06-15T07:10:08.943Z,35.96
2017-06-15T07:11:23.575Z,35.55
2017-06-15T07:12:23.630Z,35.74
2017-06-15T07:13:09.029Z,35.58
2017-06-15T07:14:09.117Z,35.44
2017-06-15T07:15:09.109Z,35.62
2017-06-15T07:16:23.765Z,35.85
2017-06-15T07:17:23.805Z,36.46
2017-06-15T07:18:08.920Z,36.87
2017-06-15T07:19:09.261Z,36.38
2017-06-15T07:20:09.300Z,36.16
2017-06-15T07:21:09.338Z,36
2017-06-15T07:22:24.006Z,36.03
2017-06-15T07:23:09.416Z,35.53
2017-06-15T07:24:09.458Z,35.65
2017-06-15T07:25:09.491Z,34.97
2017-06-15T07:26:09.582Z,35.36
2017-06-15T07:27:09.571Z,35.53
2017-06-15T07:28:09.304Z,35.85
2017-06-15T07:29:09.648Z,35.96
2017-06-15T07:30:09.738Z,35.93
2017-06-15T07:31:09.725Z,36.15
2017-06-15T07:32:09.158Z,36.19
2017-06-15T07:33:24.420Z,35.8
2017-06-15T07:34:09.839Z,35.56
2017-06-15T07:35:09.881Z,35.99
2017-06-15T07:36:09.609Z,36.01
2017-06-15T07:37:09.954Z,36.16
2017-06-15T07:38:09.992Z,36.16
2017-06-15T07:39:09.724Z,36
2017-06-15T07:40:09.763Z,35.07
2017-06-15T07:42:10.148Z,35.11
2017-06-15T07:44:24.843Z,36.09
2017-06-15T07:45:09.958Z,36.43
2017-06-15T07:46:24.613Z,36.64
2017-06-15T07:47:10.334Z,36.66
2017-06-15T07:48:10.372Z,36.94
2017-06-15T07:49:25.029Z,36.91
2017-06-15T07:50:10.146Z,36.85
2017-06-15T07:51:10.487Z,37.22
2017-06-15T07:52:10.523Z,36.93
2017-06-15T07:53:10.261Z,36.27
2017-06-15T07:54:10.606Z,35.87
2017-06-15T07:55:10.645Z,35.33
2017-06-15T07:56:10.729Z,34.64
2017-06-15T07:57:10.713Z,34.42
2017-06-15T07:58:10.455Z,34.31
2017-06-15T07:59:10.793Z,34.8
2017-06-15T08:00:10.526Z,35.22
2017-06-15T08:01:10.564Z,35.22
2017-06-15T08:02:11.208Z,35.38
2017-06-15T08:03:10.640Z,35.41
2017-06-15T08:04:10.374Z,35.26
2017-06-15T08:05:25.639Z,35.36
2017-06-15T08:06:11.054Z,35.43
2017-06-15T08:07:10.829Z,35.84
2017-06-15T08:08:11.128Z,36.15
2017-06-15T08:09:11.167Z,36.43
2017-06-15T08:10:11.206Z,36.57
2017-06-15T08:11:10.939Z,37.13
2017-06-15T08:12:11.283Z,36.49
2017-06-15T08:13:11.319Z,35.43
2017-06-15T08:14:10.751Z,35.23
2017-06-15T08:16:11.430Z,35.56
2017-06-15T08:17:11.469Z,36.07
2017-06-15T08:18:11.257Z,36.28
2017-06-15T08:19:11.545Z,35.99
2017-06-15T08:20:26.204Z,36.62
2017-06-15T08:21:11.623Z,36.57
2017-06-15T08:22:11.360Z,35.6
2017-06-15T08:23:11.697Z,34.87
2017-06-15T08:24:11.734Z,34.72
2017-06-15T08:25:11.772Z,34.8
2017-06-15T08:26:11.811Z,34.81
2017-06-15T08:27:11.849Z,34.72
2017-06-15T08:28:11.886Z,34.84
2017-06-15T08:29:11.926Z,34.61
2017-06-15T08:30:11.657Z,34.61
2017-06-15T08:31:11.694Z,34.1
2017-06-15T08:32:11.734Z,34
2017-06-15T08:33:12.071Z,34.17
2017-06-15T08:34:11.806Z,34.31
2017-06-15T08:35:11.844Z,34.24
2017-06-15T08:36:12.232Z,34.43
2017-06-15T08:37:12.221Z,34.87
2017-06-15T08:38:12.256Z,35.22
2017-06-15T08:39:12.295Z,35.6
2017-06-15T08:40:12.028Z,35.89
2017-06-15T08:41:12.370Z,35.99
2017-06-15T08:42:12.404Z,34.91
2017-06-15T08:43:12.471Z,34.85
2017-06-15T08:44:12.477Z,35.14
2017-06-15T08:46:12.553Z,34.52
2017-06-15T08:47:12.589Z,35.11
2017-06-15T08:49:27.283Z,34.54
2017-06-15T08:50:12.698Z,34.87
2017-06-15T08:51:12.775Z,35.26
2017-06-15T08:52:27.395Z,35.45
2017-06-15T08:53:12.810Z,35.71
2017-06-15T08:54:12.848Z,36.34
2017-06-15T08:55:12.885Z,36.57
2017-06-15T08:56:12.919Z,36.93
2017-06-15T08:57:12.958Z,37.28
2017-06-15T08:58:13.002Z,36.87
2017-06-15T08:59:13.029Z,37.18
2017-06-15T09:00:13.066Z,37.13
2017-06-15T09:01:13.105Z,37.24
2017-06-15T09:02:13.143Z,36.43
2017-06-15T09:03:13.176Z,36.22
2017-06-15T09:04:27.531Z,36.23
2017-06-15T09:05:13.253Z,36.37
2017-06-15T09:06:13.286Z,36.01
2017-06-15T09:07:13.323Z,35.44
2017-06-15T09:08:27.980Z,35.31
2017-06-15T09:09:13.396Z,35.62
2017-06-15T09:10:13.433Z,35.63
2017-06-15T09:11:13.470Z,36.12
2017-06-15T09:12:13.510Z,36.34
2017-06-15T09:13:13.543Z,36.08
2017-06-15T09:14:13.580Z,35.5
2017-06-15T09:15:13.665Z,35.63
2017-06-15T09:16:13.653Z,36.01
2017-06-15T09:17:13.691Z,36.19
2017-06-15T09:18:13.423Z,35.6
2017-06-15T09:19:13.763Z,35.22
2017-06-15T09:20:13.797Z,35.62
2017-06-15T09:21:13.832Z,35.9
2017-06-15T09:22:13.616Z,36.07
2017-06-15T09:23:13.604Z,36.56
2017-06-15T09:24:28.563Z,36.69
2017-06-15T09:25:13.677Z,36.73
2017-06-15T09:26:14.015Z,36.51
2017-06-15T09:27:14.053Z,36.34
2017-06-15T09:28:14.087Z,36.47
2017-06-15T09:29:14.123Z,36.75
2017-06-15T09:30:14.162Z,36.38
2017-06-15T09:31:14.196Z,36.29
2017-06-15T09:32:13.931Z,35.66
2017-06-15T09:33:14.268Z,35.52
2017-06-15T09:34:28.930Z,35.56
2017-06-15T09:35:14.341Z,36.01
2017-06-15T09:36:14.073Z,36.73
2017-06-15T09:37:14.109Z,36.64
2017-06-15T09:38:29.070Z,36.59
2017-06-15T09:39:14.214Z,36.5
2017-06-15T09:40:28.840Z,36.56
2017-06-15T09:41:14.610Z,35.82
2017-06-15T09:42:14.595Z,35.33
2017-06-15T09:43:14.329Z,34.73
2017-06-15T09:44:14.717Z,34.56
2017-06-15T09:45:14.703Z,34.94
2017-06-15T09:46:14.741Z,35.14
2017-06-15T09:47:14.774Z,34.91
2017-06-15T09:49:14.853Z,35.11
2017-06-15T09:50:14.880Z,35.18
2017-06-15T09:51:14.966Z,34.94
2017-06-15T09:52:14.953Z,34.61
2017-06-15T09:53:14.988Z,34.27
2017-06-15T09:54:15.024Z,34.85
2017-06-15T09:55:29.678Z,35.53
2017-06-15T09:56:15.094Z,35.78
2017-06-15T09:57:15.129Z,35.77
2017-06-15T09:58:15.165Z,35.36
2017-06-15T09:59:15.199Z,34.91
2017-06-15T10:00:15.286Z,34.92
2017-06-15T10:01:14.966Z,34.96
2017-06-15T10:03:15.037Z,34.91
2017-06-15T10:06:15.143Z,35.36
2017-06-15T10:07:30.103Z,35.33
2017-06-15T10:08:15.215Z,35.02
2017-06-15T10:09:15.549Z,35.16
2017-06-15T10:10:15.282Z,35.04
2017-06-15T10:11:15.621Z,34.97
2017-06-15T10:12:15.655Z,34.82
2017-06-15T10:13:15.691Z,34.61
2017-06-15T10:14:15.729Z,34.94
2017-06-15T10:15:15.761Z,35
2017-06-15T10:16:15.797Z,35.37
2017-06-15T10:17:15.880Z,35.55
2017-06-15T10:18:30.492Z,35.41
2017-06-15T10:19:15.898Z,35.34
2017-06-15T10:20:15.936Z,34.92
2017-06-15T10:22:30.628Z,34.72
2017-06-15T10:23:16.038Z,34.32
2017-06-15T10:24:16.075Z,33.65
2017-06-15T10:25:16.108Z,32.45
2017-06-15T10:26:15.841Z,32.74
2017-06-15T10:27:30.796Z,33.14
2017-06-15T10:28:16.211Z,33.57
2017-06-15T10:29:16.245Z,33.47
2017-06-15T10:30:16.281Z,33.49
2017-06-15T10:31:16.316Z,33.44
2017-06-15T10:32:16.348Z,33.42
2017-06-15T10:33:16.385Z,33.26
2017-06-15T10:34:16.420Z,33.31
2017-06-15T10:35:16.455Z,33.28
2017-06-15T10:37:16.526Z,33.09
2017-06-15T10:39:16.286Z,32.4
2017-06-15T10:40:16.324Z,32.11
2017-06-15T10:41:16.355Z,32.21
2017-06-15T10:42:16.391Z,32.37
2017-06-15T10:43:31.347Z,32.45
2017-06-15T10:44:16.772Z,32.77
2017-06-15T10:45:16.794Z,32.89
2017-06-15T10:46:16.570Z,32.51
2017-06-15T10:47:16.611Z,32.26
2017-06-15T10:48:16.898Z,32.23
2017-06-15T10:50:16.359Z,32.01
2017-06-15T10:51:17.001Z,32.37
2017-06-15T10:52:17.032Z,32.28
2017-06-15T10:54:17.103Z,31.99
2017-06-15T10:55:17.172Z,31.7
2017-06-15T10:56:31.790Z,31.31
2017-06-15T10:57:31.824Z,31.38
2017-06-15T10:58:17.237Z,31.39
2017-06-15T10:59:31.891Z,31.8
2017-06-15T11:01:17.338Z,31.92
2017-06-15T11:02:17.408Z,32.06
2017-06-15T11:03:17.406Z,32.15
2017-06-15T11:04:17.439Z,32.15
2017-06-15T11:05:17.474Z,32.04
2017-06-15T11:06:17.508Z,31.93
2017-06-15T11:08:17.573Z,31.44
2017-06-15T11:11:17.675Z,31.72
2017-06-15T11:12:32.329Z,31.93
2017-06-15T11:13:17.742Z,32.06
2017-06-15T11:14:17.777Z,32.18
2017-06-15T11:15:32.479Z,32.11
2017-06-15T11:16:17.843Z,32.1
2017-06-15T11:17:17.880Z,32.15
2017-06-15T11:18:17.908Z,32.19
2017-06-15T11:19:17.641Z,32.08
2017-06-15T11:20:17.979Z,31.92
2017-06-15T11:21:18.011Z,32.07
2017-06-15T11:22:18.043Z,32.03
2017-06-15T11:23:18.129Z,32.04
2017-06-15T11:24:18.116Z,32.19
2017-06-15T11:26:18.176Z,31.73
2017-06-15T11:27:18.257Z,31.44
2017-06-15T11:28:18.244Z,31.36
2017-06-15T11:29:17.974Z,31.32
2017-06-15T11:30:32.929Z,30.76
2017-06-15T11:31:18.039Z,30.64
2017-06-15T11:32:18.073Z,30.53
2017-06-15T11:33:18.411Z,30.39
2017-06-15T11:34:18.442Z,30.55
2017-06-15T11:35:18.477Z,30.72
2017-06-15T11:36:18.507Z,30.8
2017-06-15T11:37:18.543Z,30.86
2017-06-15T11:38:18.573Z,30.84
2017-06-15T11:39:18.607Z,31.1
2017-06-15T11:40:18.639Z,31.14
2017-06-15T11:42:18.705Z,31.17
2017-06-15T11:43:18.433Z,31.09
2017-06-15T11:44:18.772Z,31.31
2017-06-15T11:45:18.805Z,31.29
2017-06-15T11:46:18.836Z,31.43
2017-06-15T11:47:18.867Z,31.53
2017-06-15T11:48:18.911Z,31.75
2017-06-15T11:49:18.933Z,31.61
2017-06-15T11:50:18.965Z,31.7
2017-06-15T11:51:18.999Z,31.57
2017-06-15T11:52:19.033Z,31.75
2017-06-15T11:53:18.762Z,31.78
2017-06-15T11:54:19.148Z,31.72
2017-06-15T11:55:19.131Z,31.73
2017-06-15T11:56:18.859Z,31.58
2017-06-15T11:57:18.898Z,31.63
2017-06-15T11:59:19.262Z,30.57
2017-06-15T12:00:19.041Z,30
2017-06-15T12:01:19.329Z,29.86
2017-06-15T12:02:33.980Z,29.79
2017-06-15T12:03:19.396Z,30
2017-06-15T12:04:19.425Z,29.68
2017-06-15T12:05:19.456Z,29.79
2017-06-15T12:06:19.542Z,29.74
2017-06-15T12:07:19.521Z,30.02
2017-06-15T12:08:19.553Z,30.08
2017-06-15T12:09:19.585Z,30.32
2017-06-15T12:10:19.653Z,30.42
2017-06-15T12:12:19.683Z,30.75
2017-06-15T12:13:19.725Z,30.77
2017-06-15T12:14:19.800Z,31.02
2017-06-15T12:15:34.400Z,31.36
2017-06-15T12:16:19.813Z,31.02
2017-06-15T12:17:19.845Z,31.04
2017-06-15T12:18:34.498Z,30.89
2017-06-15T12:19:19.911Z,30.95
2017-06-15T12:20:19.941Z,30.86
2017-06-15T12:21:19.974Z,31.01
2017-06-15T12:22:20.007Z,31.07
2017-06-15T12:23:20.038Z,30.75
2017-06-15T12:24:20.070Z,30.61
2017-06-15T12:25:20.105Z,30.54
2017-06-15T12:26:20.436Z,30.55
2017-06-15T12:27:20.171Z,30.6
2017-06-15T12:28:20.199Z,30.76
2017-06-15T12:29:19.929Z,30.88
2017-06-15T12:30:34.937Z,30.88
2017-06-15T12:31:34.613Z,30.79
2017-06-15T12:32:34.948Z,30.94
2017-06-15T12:33:20.365Z,30.89
2017-06-15T12:34:35.014Z,31.02
2017-06-15T12:35:20.427Z,31.09
2017-06-15T12:36:20.458Z,30.8
2017-06-15T12:37:20.494Z,30.77
2017-06-15T12:38:20.521Z,30.84
2017-06-15T12:39:20.556Z,30.98
2017-06-15T12:40:20.587Z,30.79
2017-06-15T12:41:20.622Z,30.69
2017-06-15T12:42:20.650Z,30.53
2017-06-15T12:43:20.383Z,30.38
2017-06-15T12:44:20.714Z,30.01
2017-06-15T12:45:20.747Z,30.13
2017-06-15T12:46:20.779Z,30.35
2017-06-15T12:47:20.815Z,30.47
2017-06-15T12:48:20.544Z,30.11
2017-06-15T12:49:35.493Z,30.17
2017-06-15T12:50:35.526Z,30.38
2017-06-15T12:51:20.947Z,30.61
2017-06-15T12:52:20.973Z,30.62
2017-06-15T12:53:20.700Z,30.69
2017-06-15T12:54:21.037Z,30.51
2017-06-15T12:55:21.066Z,30.62
2017-06-15T12:56:21.099Z,30.79
2017-06-15T12:57:21.132Z,30.7
2017-06-15T12:58:21.164Z,30.69
2017-06-15T12:59:21.226Z,30.73
2017-06-15T13:00:21.226Z,30.62
2017-06-15T13:01:21.308Z,30.54
2017-06-15T13:02:21.295Z,30.61
2017-06-15T13:03:21.322Z,30.76
2017-06-15T13:04:21.362Z,30.76
2017-06-15T13:05:36.008Z,30.8
2017-06-15T13:06:21.420Z,30.79
2017-06-15T13:07:21.455Z,30.76
2017-06-15T13:08:21.485Z,31.04
2017-06-15T13:09:21.515Z,31.17
2017-06-15T13:10:21.548Z,30.79
2017-06-15T13:11:21.581Z,30.79
2017-06-15T13:12:21.911Z,31.02
2017-06-15T13:13:21.643Z,31.04
2017-06-15T13:14:21.370Z,31.09
2017-06-15T13:15:21.707Z,31.16
2017-06-15T13:17:36.392Z,30.73
2017-06-15T13:18:21.804Z,30.8
2017-06-15T13:19:21.833Z,30.49
2017-06-15T13:20:21.866Z,30.19
2017-06-15T13:21:21.898Z,29.89
2017-06-15T13:22:21.928Z,30.13
2017-06-15T13:23:22.013Z,30.45
2017-06-15T13:24:21.997Z,30.67
2017-06-15T13:25:22.029Z,30.84
2017-06-15T13:26:22.061Z,30.97
2017-06-15T13:27:22.090Z,31.06
2017-06-15T13:28:22.122Z,31.21
2017-06-15T13:29:22.152Z,31.25
2017-06-15T13:30:22.192Z,30.89
2017-06-15T13:32:21.950Z,30.38
2017-06-15T13:33:22.281Z,30.29
2017-06-15T13:34:22.312Z,30.23
2017-06-15T13:35:22.346Z,30.49
2017-06-15T13:36:22.078Z,30.7
2017-06-15T13:37:37.029Z,30.77
2017-06-15T13:38:22.442Z,30.76
2017-06-15T13:39:22.474Z,30.67
2017-06-15T13:40:22.503Z,30.89
2017-06-15T13:41:22.537Z,30.77
2017-06-15T13:42:22.569Z,30.67
2017-06-15T13:43:22.901Z,30.75
2017-06-15T13:44:22.633Z,30.58
2017-06-15T13:46:22.704Z,30.31
2017-06-15T13:47:22.726Z,30.49
2017-06-15T13:48:22.760Z,30.55
2017-06-15T13:49:22.791Z,30.62
2017-06-15T13:50:37.444Z,30.69
2017-06-15T13:51:22.858Z,30.76
2017-06-15T13:52:22.886Z,30.79